| time (UTC) | temp F | wind direction | speed knots | gust knots | rain 1hr in | rain 24hr in | rain mn in | humidity % | barometer mb |
| 20260505194325 | 75 | 116 | 1.7 | 2.6 | 0.00 | 0.00 | 0.00 | 41 | 1008.7 |
| 20260505194225 | 75 | 116 | 1.7 | 2.6 | 0.00 | 0.00 | 0.00 | 41 | 1008.7 |
| 20260505193225 | 76 | 296 | 2.6 | 3.5 | 0.00 | 0.00 | 0.00 | 41 | 1009.0 |
| 20260505192414 | 77 | 61 | 0.9 | 7.8 | 0.00 | 0.00 | 0.00 | 41 | 1009.1 |
| 20260505192224 | 77 | 61 | 0.9 | 7.8 | 0.00 | 0.00 | 0.00 | 41 | 1009.1 |
| 20260505191224 | 76 | 104 | 0.9 | 2.6 | 0.00 | 0.00 | 0.00 | 45 | 1009.1 |
| 20260505190229 | 76 | 328 | 2.6 | 12.2 | 0.00 | 0.00 | 0.00 | 46 | 1009.4 |
| 20260505185229 | 76 | 56 | 3.5 | 6.1 | 0.00 | 0.00 | 0.00 | 44 | 1009.7 |
| 20260505184450 | 76 | 264 | 2.6 | 6.1 | 0.00 | 0.00 | 0.00 | 47 | 1009.9 |
| 20260505184229 | 76 | 264 | 2.6 | 6.1 | 0.00 | 0.00 | 0.00 | 47 | 1009.9 |
| 20260505183229 | 76 | 64 | 3.5 | 4.3 | 0.00 | 0.00 | 0.00 | 50 | 1010.1 |
| 20260505182228 | 76 | 267 | 0.9 | 9.6 | 0.00 | 0.00 | 0.00 | 48 | 1010.2 |
| 20260505181228 | 75 | 326 | 1.7 | 6.1 | 0.00 | 0.00 | 0.00 | 46 | 1010.3 |
| 20260505180228 | 76 | 69 | 0.9 | 7.0 | 0.00 | 0.00 | 0.00 | 49 | 1010.4 |
| 20260505175228 | 76 | 342 | 0.9 | 8.7 | 0.00 | 0.00 | 0.00 | 45 | 1010.6 |
| 20260505174228 | 76 | 63 | 0.9 | 12.2 | 0.00 | 0.00 | 0.00 | 44 | 1010.7 |
| 20260505173227 | 76 | 321 | 0.9 | 7.0 | 0.00 | 0.00 | 0.00 | 45 | 1010.6 |
| 20260505172259 | 75 | 310 | 1.7 | 7.0 | 0.00 | 0.00 | 0.00 | 46 | 1010.8 |
| 20260505172227 | 75 | 310 | 1.7 | 7.0 | 0.00 | 0.00 | 0.00 | 46 | 1010.8 |
| 20260505171227 | 75 | 274 | 2.6 | 9.6 | 0.00 | 0.00 | 0.00 | 43 | 1011.0 |
| 20260505170227 | 76 | 71 | 0.9 | 3.5 | 0.00 | 0.00 | 0.00 | 45 | 1011.2 |
| 20260505165227 | 75 | 275 | 2.6 | 7.0 | 0.00 | 0.00 | 0.00 | 44 | 1011.4 |
| 20260505164226 | 75 | 186 | 0.0 | 7.0 | 0.00 | 0.00 | 0.00 | 46 | 1011.5 |
| 20260505163227 | 74 | 92 | 0.9 | 9.6 | 0.00 | 0.00 | 0.00 | 47 | 1011.7 |
| 20260505162226 | 75 | 64 | 1.7 | 10.4 | 0.00 | 0.00 | 0.00 | 46 | 1011.7 |
| 20260505161324 | 75 | 300 | 4.3 | 8.7 | 0.00 | 0.00 | 0.00 | 47 | 1011.6 |
| 20260505161226 | 75 | 300 | 4.3 | 8.7 | 0.00 | 0.00 | 0.00 | 47 | 1011.6 |
| 20260505160258 | 75 | 296 | 6.1 | 7.8 | 0.00 | 0.00 | 0.00 | 48 | 1011.6 |
| 20260505160226 | 75 | 296 | 6.1 | 7.8 | 0.00 | 0.00 | 0.00 | 48 | 1011.6 |
| 20260505153338 | 73 | 274 | 2.6 | 7.0 | 0.00 | 0.00 | 0.00 | 51 | 1011.7 |
| 20260505153225 | 73 | 274 | 2.6 | 7.0 | 0.00 | 0.00 | 0.00 | 51 | 1011.7 |
| 20260505152337 | 73 | 74 | 0.0 | 3.5 | 0.00 | 0.00 | 0.00 | 50 | 1011.6 |
| 20260505152225 | 73 | 74 | 0.0 | 3.5 | 0.00 | 0.00 | 0.00 | 50 | 1011.6 |
| 20260505151255 | 72 | 99 | 2.6 | 4.3 | 0.00 | 0.00 | 0.00 | 51 | 1011.6 |
| 20260505151225 | 72 | 99 | 2.6 | 4.3 | 0.00 | 0.00 | 0.00 | 51 | 1011.6 |
| 20260505150224 | 72 | 335 | 0.9 | 2.6 | 0.00 | 0.00 | 0.00 | 53 | 1011.6 |
| 20260505140227 | 69 | 292 | 1.7 | 0.9 | 0.00 | 0.00 | 0.00 | 61 | 1012.0 |
| 20260505110224 | 51 | 25 | 0.0 | 0.0 | 0.00 | 0.00 | 0.00 | 87 | 1010.5 |
| 20260505030150 | 66 | 335 | 0.0 | 0.0 | 0.00 | 0.00 | 0.00 | 59 | 1010.2 |
| 20260505025150 | 66 | 335 | 0.0 | 0.0 | 0.00 | 0.00 | 0.00 | 58 | 1010.2 |
| 20260505024150 | 66 | 335 | 0.0 | 0.0 | 0.00 | 0.00 | 0.00 | 58 | 1010.2 |
| 20260505023150 | 66 | 335 | 0.0 | 0.0 | 0.00 | 0.00 | 0.00 | 57 | 1010.4 |
| 20260505022150 | 67 | 335 | 0.0 | 0.9 | 0.00 | 0.00 | 0.00 | 57 | 1010.4 |
| 20260505021150 | 67 | 335 | 0.0 | 0.9 | 0.00 | 0.00 | 0.00 | 56 | 1010.3 |
| 20260505020149 | 67 | 335 | 0.0 | 0.9 | 0.00 | 0.00 | 0.00 | 55 | 1010.2 |
| 20260505015149 | 68 | 316 | 0.9 | 1.7 | 0.00 | 0.00 | 0.00 | 55 | 1010.1 |
| 20260505014149 | 68 | 311 | 0.0 | 0.9 | 0.00 | 0.00 | 0.00 | 54 | 1010.1 |
| 20260505013149 | 69 | 298 | 0.0 | 1.7 | 0.00 | 0.00 | 0.00 | 53 | 1010.0 |
| 20260505012149 | 69 | 290 | 0.0 | 1.7 | 0.00 | 0.00 | 0.00 | 52 | 1009.9 |
| 20260505011149 | 70 | 321 | 0.9 | 1.7 | 0.00 | 0.00 | 0.00 | 51 | 1009.8 |
| 20260505010149 | 71 | 286 | 0.9 | 1.7 | 0.00 | 0.00 | 0.00 | 49 | 1009.8 |
| 20260505005148 | 71 | 294 | 0.0 | 1.7 | 0.00 | 0.00 | 0.00 | 48 | 1009.6 |
| 20260505002646 | 73 | 290 | 0.0 | 0.9 | 0.00 | 0.00 | 0.00 | 45 | 1009.5 |
| 20260505001646 | 73 | 290 | 0.0 | 0.9 | 0.00 | 0.00 | 0.00 | 44 | 1009.5 |
| 20260505000646 | 74 | 286 | 0.9 | 0.9 | 0.00 | 0.00 | 0.00 | 44 | 1009.5 |
| 20260504235646 | 74 | 296 | 0.0 | 6.1 | 0.00 | 0.00 | 0.00 | 43 | 1009.4 |
| 20260504234646 | 74 | 275 | 0.9 | 3.5 | 0.00 | 0.00 | 0.00 | 43 | 1009.3 |
| 20260504233645 | 75 | 22 | 0.9 | 1.7 | 0.00 | 0.00 | 0.00 | 42 | 1009.3 |
| 20260504232645 | 75 | 309 | 0.9 | 2.6 | 0.00 | 0.00 | 0.00 | 42 | 1009.2 |
| 20260504231645 | 76 | 130 | 0.9 | 2.6 | 0.00 | 0.00 | 0.00 | 44 | 1009.1 |
| 20260504230645 | 75 | 277 | 1.7 | 1.7 | 0.00 | 0.00 | 0.00 | 45 | 1009.1 |
| 20260504225644 | 75 | 341 | 0.0 | 2.6 | 0.00 | 0.00 | 0.00 | 44 | 1009.1 |
| 20260504224644 | 75 | 249 | 0.0 | 4.3 | 0.00 | 0.00 | 0.00 | 44 | 1009.3 |
| 20260504223644 | 75 | 238 | 0.9 | 2.6 | 0.00 | 0.00 | 0.00 | 44 | 1009.3 |
| 20260504222644 | 76 | 271 | 0.9 | 4.3 | 0.00 | 0.00 | 0.00 | 43 | 1009.3 |
| 20260504221643 | 76 | 298 | 0.9 | 3.5 | 0.00 | 0.00 | 0.00 | 42 | 1009.3 |
| 20260504220643 | 76 | 252 | 1.7 | 4.3 | 0.00 | 0.00 | 0.00 | 43 | 1009.4 |
| 20260504213643 | 77 | 302 | 0.9 | 7.0 | 0.00 | 0.00 | 0.00 | 40 | 1009.3 |
| 20260504212642 | 77 | 57 | 0.0 | 8.7 | 0.00 | 0.00 | 0.00 | 41 | 1009.4 |
| 20260504211642 | 77 | 313 | 0.9 | 6.1 | 0.00 | 0.00 | 0.00 | 41 | 1009.4 |
| 20260504210642 | 78 | 121 | 0.9 | 7.0 | 0.00 | 0.00 | 0.00 | 39 | 1009.5 |
| 20260504205647 | 77 | 284 | 3.5 | 1.7 | 0.00 | 0.00 | 0.00 | 41 | 1009.6 |
| 20260504204646 | 77 | 30 | 1.7 | 7.0 | 0.00 | 0.00 | 0.00 | 42 | 1009.6 |
| 20260504203646 | 77 | 318 | 2.6 | 8.7 | 0.00 | 0.00 | 0.00 | 40 | 1009.8 |
| 20260504202646 | 77 | 301 | 0.0 | 11.3 | 0.00 | 0.00 | 0.00 | 40 | 1009.9 |
| 20260504201646 | 76 | 302 | 3.5 | 6.1 | 0.00 | 0.00 | 0.00 | 46 | 1010.0 |
| 20260504200646 | 77 | 107 | 0.0 | 7.8 | 0.00 | 0.00 | 0.00 | 45 | 1010.2 |
| 20260504195645 | 76 | 286 | 1.7 | 7.0 | 0.00 | 0.00 | 0.00 | 44 | 1010.3 |